Flugplatz Münster Osnabrück

Bericht für EDDG

vom 31.05. um 08:20 UTC

variable Windrichtung mit 7 kt

Sichtweite 10 km oder mehr

gering bewölkt in 4300 ft

Temperatur 17.0°C

Taupunkt 5.0°C

Luftfeuchtigkeit 45%

Luftdruck 1024 hPa

keine wesentliche Wetteränderung innerhalb den nächsten 2 Stunden zu erwarten

EDDG 310820Z VRB07KT 9999 FEW043 17/05 Q1024 NOSIG

Prognose für EDDG

vom 31.05. um 05:00 UTC

Zwischen 06:00 UTC und 06:00 UTC

Wind 4 kt aus 50°

Sichtweite 10 km oder mehr

keine signifikanten Wettererscheinungen

keine Wolken


Zwischen 06:00 und 09:00 UTC übergehend zu

Wind 10 kt aus 50°

Sichtweite 10 km oder mehr

keine signifikanten Wettererscheinungen

keine Wolken


Zwischen 18:00 und 20:00 UTC übergehend zu

Wind 5 kt aus 50°

Sichtweite 10 km oder mehr

keine signifikanten Wettererscheinungen

keine Wolken

TAF EDDG 310500Z 3106/0106 05004KT CAVOK BECMG 3106/3109 05010KT BECMG 3118/3120 05005KT
Impressum